Terminal Aerodrome Forecast
Issued by NWS

Home | Current Version | Previous Version | Text Only | Print | Product List | Glossary On
Versions: 1 2 3 4 5 6 7 8 9 10 11 12 13 14 15
000
FTUS44 KCRP 270533
TAFALI
TAF
KALI 270533Z 2706/2806 15010KT P6SM OVC010
      TEMPO 2709/2713 5SM BR
     FM271400 18015G22KT P6SM SCT025 BKN250
      TEMPO 2714/2716 BKN025
     FM272000 14016G24KT P6SM FEW040 SCT250
     FM280300 15012KT P6SM OVC015=

USA.gov is the U.S. government's official web portal to all federal, state and local government web resources and services.